Data for 01/14/2008

Time Sea-Level Adjusted Pressure Absolute Pressure Temperature Relative Humidity Dew Point   
(mb) (inHg) (mb) (inHg) (C) (F) (%) (C) (F)
00:05 1026 30.3 856 25.28 -3.8 25.2 71 -8.3 17
00:10 1026 30.3 856 25.28 -3.7 25.3 71 -8.3 17
00:15 1026 30.3 856 25.28 -3.8 25.2 71 -8.2 17.2
00:20 1026 30.3 856 25.28 -3.9 24.9 72 -8.3 17
00:25 1026 30.3 856 25.28 -3.9 25.1 71 -8.4 16.8
00:30 1026 30.3 856 25.28 -3.6 25.5 70 -8.3 17.1
00:35 1027 30.33 856 25.28 -3.5 25.6 69 -8.3 17
00:40 1027 30.33 856 25.28 -3.5 25.7 69 -8.4 16.9
00:45 1027 30.33 856 25.28 -3.8 25.2 71 -8.3 17
00:50 1027 30.33 856 25.28 -3.8 25.2 70 -8.4 16.8
00:55 1027 30.33 856 25.28 -3.7 25.3 69 -8.7 16.4
01:00 1027 30.33 856 25.28 -3.8 25.2 69 -8.7 16.3
01:05 1027 30.33 856 25.28 -4 24.8 70 -8.7 16.4
01:10 1027 30.33 856 25.28 -4.1 24.6 71 -8.7 16.3
01:15 1027 30.33 856 25.28 -4.1 24.6 72 -8.5 16.7
01:20 1027 30.33 856 25.28 -4.6 23.8 74 -8.6 16.5
01:25 1027 30.33 856 25.28 -4.7 23.6 73 -8.8 16.2
01:30 1027 30.33 856 25.28 -4.7 23.6 73 -8.8 16.2
01:35 1027 30.33 856 25.28 -4.6 23.6 71 -9.1 15.7
01:40 1027 30.33 856 25.28 -4.6 23.7 71 -9.1 15.6
01:45 1026 30.3 856 25.28 -4.5 24 69 -9.3 15.3
01:50 1026 30.3 856 25.28 -4 24.8 67 -9.3 15.3
01:55 1026 30.3 856 25.28 -4 24.9 70 -8.7 16.3
02:00 1027 30.33 856 25.28 -4.7 23.5 74 -8.7 16.4
02:05 1027 30.33 856 25.28 -5 23 73 -9.1 15.7
02:10 1027 30.33 856 25.28 -4.9 23.2 73 -9.1 15.6
02:15 1027 30.33 856 25.28 -4.9 23.1 74 -8.9 16
02:20 1027 30.33 856 25.28 -5.2 22.6 73 -9.4 15.1
02:25 1027 30.33 856 25.28 -5.3 22.5 72 -9.5 14.9
02:30 1027 30.33 856 25.28 -5.4 22.4 74 -9.3 15.3
02:35 1027 30.33 856 25.28 -5 23 72 -9.2 15.4
02:40 1027 30.33 856 25.28 -4.7 23.5 72 -9.1 15.7
02:45 1027 30.33 856 25.28 -5.1 22.7 75 -9 15.8
02:50 1027 30.33 856 25.28 -5.4 22.2 75 -9.2 15.5
02:55 1027 30.33 856 25.28 -5.5 22.1 75 -9.2 15.4
03:00 1027 30.33 856 25.28 -5.2 22.6 74 -9.2 15.4
03:05 1027 30.33 856 25.28 -4.5 24 70 -9.1 15.7
03:10 1027 30.33 856 25.28 -4.3 24.2 71 -8.9 16
03:15 1027 30.33 856 25.28 -5.4 22.3 74 -9.4 15.2
03:20 1027 30.33 856 25.28 -5.2 22.7 72 -9.4 15
03:25 1027 30.33 856 25.28 -5.5 22.1 74 -9.4 15
03:30 1027 30.33 856 25.28 -5.8 21.5 75 -9.6 14.7
03:35 1027 30.33 856 25.28 -6.2 20.9 78 -9.5 14.9
03:40 1027 30.33 856 25.28 -6.3 20.6 77 -9.8 14.4
03:45 1026 30.3 856 25.28 -5.9 21.3 76 -9.5 14.8
03:50 1026 30.3 856 25.28 -5.6 22 76 -9.2 15.5
03:55 1026 30.3 856 25.28 -5.2 22.6 74 -9.1 15.6
04:00 1026 30.3 856 25.28 -4.8 23.4 72 -9 15.8
04:05 1026 30.3 855 25.25 -4.7 23.5 72 -9 15.9
04:10 1026 30.3 855 25.25 -4.7 23.6 72 -9.1 15.7
04:15 1026 30.3 855 25.25 -4.4 24.1 71 -8.9 15.9
04:20 1026 30.3 856 25.28 -4.2 24.4 69 -9 15.8
04:25 1026 30.3 856 25.28 -4.4 24 71 -8.9 16
04:30 1026 30.3 856 25.28 -4.4 24.1 70 -9 15.8
04:35 1026 30.3 856 25.28 -4.7 23.6 71 -9.2 15.4
04:40 1026 30.3 856 25.28 -5.3 22.4 74 -9.2 15.4
04:45 1026 30.3 855 25.25 -5.6 21.9 75 -9.4 15.1
04:50 1026 30.3 855 25.25 -5.5 22.1 75 -9.2 15.4
04:55 1026 30.3 855 25.25 -5.6 22 74 -9.5 15
05:00 1026 30.3 855 25.25 -5.3 22.4 73 -9.4 15.1
05:05 1026 30.3 855 25.25 -5.5 22 74 -9.4 15.1
05:10 1026 30.3 855 25.25 -6 21.2 76 -9.6 14.8
05:15 1026 30.3 855 25.25 -6.1 21 76 -9.7 14.6
05:20 1026 30.3 855 25.25 -6 21.3 75 -9.7 14.5
05:25 1026 30.3 855 25.25 -5.9 21.4 75 -9.7 14.6
05:30 1026 30.3 855 25.25 -5.8 21.5 74 -9.8 14.4
05:35 1026 30.3 855 25.25 -5.8 21.6 74 -9.7 14.5
05:40 1026 30.3 855 25.25 -5.9 21.4 75 -9.7 14.5
05:45 1026 30.3 855 25.25 -5.9 21.3 74 -9.8 14.3
05:50 1026 30.3 855 25.25 -5.9 21.3 74 -9.9 14.2
05:55 1026 30.3 855 25.25 -6.3 20.6 75 -10 14
06:00 1026 30.3 855 25.25 -6.4 20.4 76 -10 14
06:05 1026 30.3 855 25.25 -6.5 20.3 76 -10 14.1
06:10 1026 30.3 855 25.25 -6 21.1 74 -10 14
06:15 1026 30.3 855 25.25 -5.4 22.3 72 -9.7 14.5
06:20 1025 30.27 855 25.25 -5.4 22.4 71 -9.8 14.4
06:25 1026 30.3 855 25.25 -5.4 22.2 71 -9.8 14.3
06:30 1026 30.3 855 25.25 -5.7 21.7 72 -9.9 14.2
06:35 1025 30.27 855 25.25 -6 21.2 73 -10 13.9
06:40 1025 30.27 855 25.25 -6.1 21 73 -10.2 13.7
06:45 1025 30.27 855 25.25 -6.2 20.8 74 -10.2 13.7
06:50 1025 30.27 855 25.25 -6.3 20.6 74 -10.2 13.7
06:55 1025 30.27 855 25.25 -6.4 20.4 75 -10.1 13.7
07:00 1025 30.27 855 25.25 -6.3 20.6 74 -10.2 13.7
07:05 1025 30.27 855 25.25 -6.1 21 73 -10.2 13.6
07:10 1025 30.27 855 25.25 -6 21.2 73 -10.1 13.8
07:15 1025 30.27 855 25.25 -5.8 21.5 72 -10.1 13.8
07:20 1025 30.27 855 25.25 -5.4 22.3 69 -10.1 13.8
07:25 1025 30.27 855 25.25 -5.2 22.6 70 -9.9 14.2
07:30 1025 30.27 855 25.25 -5.2 22.6 69 -10 13.9
07:35 1025 30.27 855 25.25 -5.1 22.8 68 -10.1 13.9
07:40 1025 30.27 855 25.25 -5.1 22.9 68 -10 13.9
07:45 1025 30.27 855 25.25 -5.2 22.7 69 -10.1 13.9
07:50 1025 30.27 854 25.22 -5.8 21.5 71 -10.3 13.4
07:55 1025 30.27 854 25.22 -6.9 19.5 76 -10.5 13
08:00 1025 30.27 854 25.22 -6.8 19.7 73 -10.9 12.4
08:05 1025 30.27 854 25.22 -6.8 19.7 74 -10.7 12.7
08:10 1025 30.27 854 25.22 -7.5 18.5 78 -10.6 12.8
08:15 1025 30.27 854 25.22 -7.9 17.8 80 -10.7 12.7
08:20 1025 30.27 854 25.22 -7.7 18.2 81 -10.5 13.1
08:25 1025 30.27 854 25.22 -6.6 20.2 73 -10.6 12.9
08:30 1025 30.27 854 25.22 -5.7 21.7 70 -10.3 13.5
08:35 1025 30.27 854 25.22 -5.7 21.7 70 -10.3 13.4
08:40 1025 30.27 854 25.22 -5.7 21.7 69 -10.4 13.2
08:45 1025 30.27 854 25.22 -5.7 21.8 72 -10 14
08:50 1025 30.27 854 25.22 -5.4 22.2 71 -9.8 14.3
08:55 1025 30.27 854 25.22 -5.1 22.8 69 -9.8 14.3
09:00 1025 30.27 855 25.25 -4.6 23.7 67 -9.8 14.4
09:05 1025 30.27 855 25.25 -4.4 24 67 -9.7 14.5
09:10 1025 30.27 854 25.22 -4.6 23.6 68 -9.6 14.7
09:15 1025 30.27 854 25.22 -4.3 24.2 67 -9.6 14.8
09:20 1025 30.27 854 25.22 -4.1 24.6 66 -9.5 14.9
09:25 1025 30.27 854 25.22 -4 24.9 66 -9.4 15.1
09:30 1025 30.27 854 25.22 -3.8 25.2 65 -9.4 15
09:35 1025 30.27 854 25.22 -3.9 24.9 67 -9.2 15.5
09:40 1025 30.27 854 25.22 -3.8 25.1 66 -9.2 15.4
09:45 1025 30.27 854 25.22 -3.6 25.4 65 -9.3 15.3
09:50 1025 30.27 854 25.22 -3.6 25.6 63 -9.6 14.8
09:55 1025 30.27 854 25.22 -3.3 26.1 63 -9.3 15.3
10:00 1025 30.27 854 25.22 -3.2 26.3 65 -8.8 16.2
10:05 1025 30.27 854 25.22 -3.5 25.7 65 -9.1 15.5
10:10 1025 30.27 854 25.22 -3.7 25.4 66 -9.1 15.5
10:15 1025 30.27 854 25.22 -3.9 24.9 66 -9.3 15.2
10:20 1025 30.27 854 25.22 -4 24.8 66 -9.4 15.1
10:25 1025 30.27 854 25.22 -3.9 25 66 -9.3 15.2
10:30 1025 30.27 854 25.22 -3.6 25.6 63 -9.6 14.7
10:35 1024 30.24 854 25.22 -3.1 26.5 62 -9.4 15.1
10:40 1024 30.24 854 25.22 -2.8 27 62 -9.1 15.6
10:45 1024 30.24 854 25.22 -2.6 27.4 61 -9.1 15.7
10:50 1024 30.24 854 25.22 -2.5 27.5 62 -8.8 16.1
10:55 1024 30.24 854 25.22 -2 28.4 58 -9.2 15.4
11:00 1024 30.24 854 25.22 -1.5 29.3 55 -9.4 15
11:05 1024 30.24 853 25.19 -0.6 31 52 -9.2 15.4
11:10 1024 30.24 853 25.19 -0.1 31.8 51 -9.2 15.5
11:15 1024 30.24 853 25.19 -0.2 31.7 52 -8.9 16
11:20 1024 30.24 853 25.19 -0.2 31.6 52 -9 15.8
11:25 1024 30.24 853 25.19 -0.1 31.8 51 -9.1 15.7
11:30 1024 30.24 853 25.19 1.1 33.9 46 -9.4 15.1
11:35 1024 30.24 853 25.19 1.7 35.1 45 -9 15.7
11:40 1024 30.24 853 25.19 1.6 34.9 45 -8.9 15.9
11:45 1024 30.24 853 25.19 1.9 35.3 45 -8.9 16
11:50 1024 30.24 853 25.19 1.8 35.2 45 -8.9 16
11:55 1024 30.24 853 25.19 2.1 35.8 45 -8.7 16.3
12:00 1024 30.24 853 25.19 2.2 35.9 49 -7.4 18.7
12:05 1023 30.21 853 25.19 1.4 34.6 54 -7 19.5
12:10 1023 30.21 852 25.16 0.7 33.3 54 -7.6 18.2
12:15 1023 30.21 852 25.16 0.9 33.7 53 -7.6 18.3
12:20 1023 30.21 852 25.16 0.1 32.1 57 -7.5 18.6
12:25 1023 30.21 852 25.16 -0.3 31.5 56 -8 17.7
12:30 1023 30.21 852 25.16 -0.6 30.9 59 -7.8 18
12:35 1023 30.21 852 25.16 -1.2 29.9 59 -8.1 17.4
12:40 1023 30.21 852 25.16 -1 30.1 58 -8.3 17.1
12:45 1023 30.21 852 25.16 -0.9 30.3 58 -8.2 17.2
12:50 1022 30.18 852 25.16 -0.8 30.6 58 -8.1 17.4
12:55 1022 30.18 851 25.13 -0.3 31.5 55 -8.2 17.3
13:00 1022 30.18 851 25.13 0.2 32.4 55 -7.7 18.1
13:05 1022 30.18 851 25.13 0.2 32.3 55 -7.9 17.7
13:10 1022 30.18 851 25.13 0 32.1 55 -8 17.6
13:15 1022 30.18 851 25.13 -0.1 31.8 55 -8.1 17.4
13:20 1022 30.18 851 25.13 -0.3 31.5 55 -8.2 17.3
13:25 1022 30.18 851 25.13 0.2 32.4 54 -8.2 17.3
13:30 1022 30.18 851 25.13 0.4 32.7 54 -7.9 17.7
13:35 1022 30.18 851 25.13 0.7 33.3 53 -7.8 17.9
13:40 1022 30.18 851 25.13 0.7 33.2 52 -8.2 17.3
13:45 1021 30.15 851 25.13 0.5 32.9 53 -8.1 17.4
13:50 1021 30.15 851 25.13 0.6 33 51 -8.4 16.8
13:55 1021 30.15 850 25.1 0.7 33.3 59 -6.3 20.7
14:00 1021 30.15 850 25.1 -0.1 31.7 64 -6.2 20.9
14:05 1021 30.15 850 25.1 -0.3 31.4 64 -6.2 20.8
14:10 1021 30.15 850 25.1 -0 31.9 63 -6.2 20.9
14:15 1021 30.15 850 25.1 0.1 32.2 62 -6.3 20.7
14:20 1021 30.15 850 25.1 0.3 32.5 57 -7.3 18.9
14:25 1021 30.15 850 25.1 -0 32 61 -6.7 19.9
14:30 1021 30.15 850 25.1 0.2 32.3 61 -6.5 20.3
14:35 1021 30.15 850 25.1 0.4 32.7 60 -6.6 20.2
14:40 1020 30.12 850 25.1 -0 32 61 -6.7 20
14:45 1020 30.12 850 25.1 -0.1 31.8 61 -6.8 19.8
14:50 1020 30.12 849 25.07 -0 32 62 -6.5 20.3
14:55 1020 30.12 849 25.07 0.2 32.3 61 -6.4 20.5
15:00 1020 30.12 849 25.07 0.4 32.7 60 -6.4 20.5
15:05 1020 30.12 849 25.07 0.5 32.8 59 -6.7 20
15:10 1020 30.12 849 25.07 0.6 33.1 60 -6.3 20.7
15:15 1020 30.12 849 25.07 0.5 32.9 59 -6.7 20
15:20 1020 30.12 849 25.07 0.3 32.5 60 -6.6 20
15:25 1020 30.12 849 25.07 0.2 32.4 59 -6.9 19.6
15:30 1020 30.12 849 25.07 0.3 32.5 61 -6.4 20.4
15:35 1020 30.12 849 25.07 0.3 32.6 62 -6.2 20.8
15:40 1020 30.12 849 25.07 0.2 32.4 62 -6.3 20.7
15:45 1020 30.12 849 25.07 -0.2 31.6 65 -6.1 21
15:50 1020 30.12 849 25.07 -0.5 31.1 66 -6.1 21
15:55 1019 30.09 849 25.07 -0.8 30.6 67 -6.2 20.8
16:00 1019 30.09 849 25.07 -1 30.1 67 -6.4 20.5
16:05 1019 30.09 848 25.04 -1.1 30 68 -6.4 20.5
16:10 1019 30.09 848 25.04 -1.3 29.7 69 -6.2 20.8
16:15 1019 30.09 848 25.04 -1.5 29.3 69 -6.4 20.4
16:20 1019 30.09 848 25.04 -1.6 29 69 -6.6 20
16:25 1019 30.09 848 25.04 -1.6 29.1 68 -6.8 19.8
16:30 1019 30.09 848 25.04 -1.5 29.4 67 -6.7 19.9
16:35 1019 30.09 848 25.04 -1.4 29.6 65 -7 19.4
16:40 1019 30.09 848 25.04 -1.3 29.7 64 -7.2 19
16:45 1019 30.09 848 25.04 -1.2 29.9 63 -7.3 18.9
16:50 1019 30.09 848 25.04 -1 30.2 63 -7.2 19
16:55 1019 30.09 848 25.04 -0.9 30.4 61 -7.4 18.7
17:00 1019 30.09 848 25.04 -1 30.2 61 -7.6 18.3
17:05 1019 30.09 848 25.04 -0.9 30.3 58 -8.2 17.2
17:10 1018 30.06 848 25.04 -0.7 30.7 57 -8.3 17
17:15 1018 30.06 848 25.04 -0.7 30.7 57 -8.3 17.1
17:20 1018 30.06 847 25.01 -0.8 30.6 59 -7.9 17.7
17:25 1018 30.06 847 25.01 -0.9 30.4 59 -7.9 17.8
17:30 1018 30.06 847 25.01 -0.9 30.4 57 -8.5 16.7
17:35 1018 30.06 847 25.01 -0.6 30.9 59 -7.7 18.2
17:40 1018 30.06 847 25.01 -0.7 30.7 57 -8.3 17.1
17:45 1018 30.06 847 25.01 -0.8 30.5 60 -7.6 18.3
17:50 1017 30.03 847 25.01 -0.8 30.5 57 -8.2 17.2
17:55 1017 30.03 846 24.98 -0.6 30.9 55 -8.5 16.7
18:00 1017 30.03 846 24.98 -0.5 31 55 -8.6 16.5
18:05 1017 30.03 846 24.98 -0.4 31.3 52 -9 15.8
18:10 1017 30.03 846 24.98 -0 31.9 52 -8.8 16.2
18:15 1017 30.03 846 24.98 0 32.1 53 -8.5 16.6
18:20 1017 30.03 846 24.98 -0.1 31.9 55 -8.1 17.4
18:25 1017 30.03 846 24.98 -0.5 31.1 55 -8.4 16.9
18:30 1017 30.03 846 24.98 -0.6 30.9 55 -8.5 16.7
18:35 1017 30.03 846 24.98 -0.6 30.9 55 -8.6 16.5
18:40 1016 30 846 24.98 -0.6 30.8 54 -8.8 16.2
18:45 1016 30 846 24.98 -0.6 30.9 54 -8.9 16
18:50 1016 30 845 24.95 -0.6 31 51 -9.4 15.1
18:55 1016 30 845 24.95 -0.3 31.4 51 -9.4 15.1
19:00 1016 30 845 24.95 -0.1 31.7 50 -9.3 15.2
19:05 1016 30 845 24.95 -0.2 31.6 50 -9.5 14.9
19:10 1016 30 845 24.95 -0.3 31.4 49 -9.9 14.2
19:15 1016 30 845 24.95 -0.1 31.7 48 -9.8 14.4
19:20 1016 30 845 24.95 -0.2 31.6 49 -9.7 14.6
19:25 1016 30 845 24.95 -0.6 31 51 -9.5 14.8
19:30 1015 29.97 845 24.95 -0.8 30.5 52 -9.6 14.7
19:35 1015 29.97 845 24.95 -1.2 29.9 52 -9.7 14.5
19:40 1015 29.97 844 24.92 -1.2 29.9 51 -10.2 13.7
19:45 1015 29.97 844 24.92 -0.9 30.4 49 -10.3 13.5
19:50 1015 29.97 844 24.92 -0.6 31 50 -9.9 14.3
19:55 1015 29.97 844 24.92 -0.7 30.7 50 -10 13.9
20:00 1015 29.97 844 24.92 -0.8 30.6 49 -10.2 13.6
20:05 1015 29.97 844 24.92 -0.8 30.5 47 -10.7 12.7
20:10 1014 29.94 844 24.92 -0.2 31.7 45 -10.8 12.5
20:15 1014 29.94 843 24.89 -0.1 31.9 47 -10 14
20:20 1014 29.94 843 24.89 -0.7 30.8 49 -10.2 13.7
20:25 1014 29.94 843 24.89 -1.2 29.9 50 -10.3 13.4
20:30 1014 29.94 843 24.89 -1.3 29.6 50 -10.4 13.3
20:35 1014 29.94 843 24.89 -1.6 29.2 50 -10.7 12.8
20:40 1013 29.91 843 24.89 -1.3 29.7 46 -11.4 11.5
20:45 1013 29.91 842 24.86 -0.5 31 45 -11.2 11.9
20:50 1013 29.91 842 24.86 -0.2 31.7 43 -11.2 11.8
20:55 1013 29.91 842 24.86 0 32 44 -10.9 12.4
21:00 1013 29.91 842 24.86 -0.6 30.8 47 -10.7 12.7
21:05 1013 29.91 842 24.86 -1 30.3 48 -10.7 12.8
21:10 1013 29.91 842 24.86 -1.3 29.7 49 -10.8 12.6
21:15 1013 29.91 842 24.86 -1.2 29.8 48 -10.9 12.4
21:20 1012 29.88 842 24.86 -1.2 29.9 48 -10.8 12.5
21:25 1012 29.88 841 24.83 -1.2 29.9 48 -10.8 12.5
21:30 1012 29.88 841 24.83 -0.8 30.6 45 -11.2 11.8
21:35 1012 29.88 841 24.83 -0.4 31.4 45 -11 12.3
21:40 1012 29.88 841 24.83 -0.3 31.4 44 -11.1 12.1
21:45 1012 29.88 841 24.83 -0.2 31.6 43 -11.3 11.7
21:50 1012 29.88 841 24.83 0.1 32.1 44 -10.8 12.6
21:55 1011 29.85 841 24.83 -0.3 31.5 46 -10.5 13.1
22:00 1011 29.85 840 24.81 -0.9 30.5 49 -10.3 13.5
22:05 1011 29.85 840 24.81 -1.2 29.9 48 -11 12.3
22:10 1011 29.85 840 24.81 -0.6 30.9 46 -10.9 12.3
22:15 1011 29.85 840 24.81 -0.7 30.7 48 -10.4 13.3
22:20 1011 29.85 840 24.81 -0.9 30.4 47 -10.7 12.7
22:25 1010 29.83 840 24.81 -1 30.2 49 -10.5 13.1
22:30 1010 29.83 839 24.78 -0.6 30.9 43 -11.8 10.8
22:35 1010 29.83 839 24.78 0.2 32.4 44 -10.6 12.8
22:40 1010 29.83 839 24.78 1.4 34.6 32 -13.4 7.9
22:45 1010 29.83 839 24.78 2.9 37.3 36 -10.6 12.9
22:50 1010 29.83 839 24.78 1.6 34.9 40 -10.7 12.7
22:55 1010 29.83 839 24.78 0.9 33.7 43 -10.3 13.5
23:00 1009 29.8 839 24.78 0.7 33.2 42 -10.8 12.6
23:05 1009 29.8 839 24.78 1.1 34 37 -11.9 10.5
23:10 1009 29.8 838 24.75 2.4 36.3 33 -12.3 9.8
23:15 1009 29.8 838 24.75 2.9 37.3 33 -11.7 10.9
23:20 1009 29.8 838 24.75 3.5 38.2 31 -11.9 10.5
23:25 1009 29.8 838 24.75 4 39.2 33 -11 12.2
23:30 1009 29.8 838 24.75 3.9 38.9 34 -10.8 12.6
23:35 1009 29.8 838 24.75 3.7 38.7 33 -11.2 11.8
23:40 1009 29.8 838 24.75 3.8 38.9 34 -10.8 12.6
23:45 1009 29.8 838 24.75 2.5 36.5 39 -10.1 13.8
23:50 1009 29.8 838 24.75 1.6 34.9 41 -10.2 13.6
23:55 1008 29.77 838 24.75 1.4 34.5 38 -11.5 11.3
24:00 1008 29.77 838 24.75 2.7 36.9 33 -12.2 10.1